Federal Sable — V7WS4 — position and weather

sailwx.info

Track history (hours):
 
Tides and Currents Weather Stations Pressure Air Temp Water Temp Dewpoint Dewpoint Depression Visibility Wind Speed Wind Dir Waves Ship Positions

Federal Sable

Last reported at 2017-Feb-15 12:31 UTC. Time now 2017-Feb-23 00:16 UTC.
Position N 29°17' W 120°28'.

Length 190 m; draft 9.2 m.

Type: Cargo ship. MMSI: 538004380.

Date/timePositionNaut miles runAvg speedWind from/ knotsBaromVisibWave heightAir tempDewpointWater temp
2017-Feb-15 12:31N 29°17' W 120°28'1513.1
2017-Feb-15 11:23N 29°26' W 120°41'1413.3
2017-Feb-15 10:21N 29°35' W 120°53'1413.2
2017-Feb-15 09:18N 29°43' W 121°06'2212.9
2017-Feb-15 07:34N 29°57' W 121°26'1312.5
2017-Feb-15 06:32N 30°05' W 121°38'1212.7
2017-Feb-15 05:33N 30°13' W 121°49'1513.0
2017-Feb-15 04:23N 30°22' W 122°03'1413.3
2017-Feb-15 03:21N 30°31' W 122°15'1113.4
2017-Feb-15 02:34N 30°39' W 122°24'1413.8
2017-Feb-15 01:34N 30°49' W 122°34'1414.0
2017-Feb-15 00:33N 30°60' W 122°45'1313.5
2017-Feb-14 23:33N 31°10' W 122°56'1813.2
2017-Feb-14 22:13N 31°23' W 123°09'913.2
2017-Feb-14 21:32N 31°30' W 123°16'5313.3
2017-Feb-14 17:33N 32°10' W 123°57'1914.2
2017-Feb-14 16:14N 32°25' W 124°10'1013.6
2017-Feb-14 15:29N 32°34' W 124°17'1313.6
2017-Feb-14 14:33N 32°44' W 124°24'1413.7
2017-Feb-14 13:33N 32°56' W 124°33'1513.8
2017-Feb-14 12:30N 33°08' W 124°42'1313.7
2017-Feb-14 11:34N 33°19' W 124°50'1413.8
2017-Feb-14 10:33N 33°31' W 124°58'1414.0
2017-Feb-14 09:33N 33°43' W 125°07'1413.7
2017-Feb-14 08:33N 33°55' W 125°16'1413.7
2017-Feb-14 07:33N 34°06' W 125°25'4613.4
2017-Feb-14 04:09N 34°45' W 125°54'813.1
2017-Feb-14 03:33N 34°52' W 125°59'3913.1
2017-Feb-14 00:33N 35°25' W 126°24'1312.8
2017-Feb-13 23:33N 35°36' W 126°32'1312.7
2017-Feb-13 22:33N 35°47' W 126°40'1312.8
2017-Feb-13 21:33N 35°58' W 126°49'6813.3
2017-Feb-13 16:25N 36°56' W 127°33'3913.6
2017-Feb-13 13:33N 37°31' W 127°53'1413.6
2017-Feb-13 12:33N 37°44' W 127°59'1414.2
2017-Feb-13 11:33N 37°57' W 128°05'1414.0
2017-Feb-13 10:33N 38°10' W 128°12'1413.7
2017-Feb-13 09:33N 38°23' W 128°18'1313.4
2017-Feb-13 08:33N 38°36' W 128°24'4613.4
2017-Feb-13 05:10N 39°18' W 128°45'813.5
2017-Feb-13 04:33N 39°26' W 128°48'432 9.8
2017-Feb-11 08:33N 46°11' W 125°27'1010.4
2017-Feb-11 07:33N 46°12' W 125°12'1010.2
2017-Feb-11 06:34N 46°12' W 124°57'10 9.9
2017-Feb-11 05:33N 46°12' W 124°43'1010.0
2017-Feb-11 04:34N 46°12' W 124°28'1110.6
2017-Feb-11 03:34N 46°11' W 124°13'9 9.2
2017-Feb-11 02:34N 46°15' W 124°01'1111.5
2017-Feb-11 01:33N 46°13' W 123°45'1313.1
2017-Feb-11 00:34N 46°14' W 123°26'9 9.2
2017-Feb-10 23:33N 46°10' W 123°13'1111.2
2017-Feb-10 22:34N 46°07' W 122°58'1 0.8
2017-Feb-10 21:32N 46°06' W 122°57'0 0.0
2017-Feb-10 20:32N 46°06' W 122°57'0 0.0
2017-Feb-10 19:32N 46°06' W 122°57'0 0.0
2017-Feb-10 18:32N 46°06' W 122°57'0 0.0
2017-Feb-10 17:32N 46°06' W 122°57'0 0.0
2017-Feb-10 16:29N 46°06' W 122°57'0 0.0
2017-Feb-10 15:29N 46°06' W 122°57'0 0.0
2017-Feb-10 14:32N 46°06' W 122°57'0 0.0
2017-Feb-10 13:32N 46°06' W 122°57'0 0.0
2017-Feb-10 12:29N 46°06' W 122°57'0 0.0
2017-Feb-10 11:32N 46°06' W 122°57'0 0.0
2017-Feb-10 10:32N 46°06' W 122°57'0 0.0
2017-Feb-10 09:32N 46°06' W 122°57'0 0.0
2017-Feb-10 08:29N 46°06' W 122°57'0 0.0
2017-Feb-10 07:32N 46°06' W 122°57'0 0.0
2017-Feb-10 06:26N 46°06' W 122°57'0 0.0
2017-Feb-10 05:32N 46°06' W 122°57'0 0.0
2017-Feb-10 04:32N 46°06' W 122°57'0 0.0
2017-Feb-10 03:29N 46°06' W 122°57'0 0.0
2017-Feb-10 02:32N 46°06' W 122°57'0 0.0
2017-Feb-10 01:32N 46°06' W 122°57'0 0.0
2017-Feb-10 00:32N 46°06' W 122°57'0 0.0
2017-Feb-09 23:29N 46°06' W 122°57'0 0.0
2017-Feb-09 22:32N 46°06' W 122°57'0 0.0
2017-Feb-09 21:32N 46°06' W 122°57'0 0.0
2017-Feb-09 20:29N 46°06' W 122°57'0 0.0
2017-Feb-09 19:29N 46°06' W 122°57'0 0.0
2017-Feb-09 18:32N 46°06' W 122°57'0 0.0
2017-Feb-09 17:32N 46°06' W 122°57'0 0.0
2017-Feb-09 16:32N 46°06' W 122°57'0 0.0
2017-Feb-09 15:32N 46°06' W 122°57'0 0.0
2017-Feb-09 14:32N 46°06' W 122°57'0 0.0
2017-Feb-09 13:29N 46°06' W 122°57'0 0.0
2017-Feb-09 12:29N 46°06' W 122°57'0 0.0
2017-Feb-09 11:32N 46°06' W 122°57'0 0.0
2017-Feb-09 10:29N 46°06' W 122°57'0 0.0
2017-Feb-09 09:32N 46°06' W 122°57'0 0.0
2017-Feb-09 08:32N 46°06' W 122°57'0 0.0
2017-Feb-09 07:32N 46°06' W 122°57'0 0.0
2017-Feb-09 06:29N 46°06' W 122°57'0 0.0
2017-Feb-09 05:32N 46°06' W 122°57'0 0.0
2017-Feb-09 04:29N 46°06' W 122°57'0 0.0
2017-Feb-09 03:32N 46°06' W 122°57'0 0.0
2017-Feb-09 02:32N 46°06' W 122°57'0 0.0
2017-Feb-09 01:29N 46°06' W 122°57'0 0.0
2017-Feb-09 00:29N 46°06' W 122°57'0 0.0
2017-Feb-08 23:29N 46°06' W 122°57'0 0.0
2017-Feb-08 22:29N 46°06' W 122°57'0 0.0
2017-Feb-08 21:32N 46°06' W 122°57'0 0.0
2017-Feb-08 20:32N 46°06' W 122°57'0 0.0
2017-Feb-08 19:32N 46°06' W 122°57'0 0.0
2017-Feb-08 18:29N 46°06' W 122°57'0 0.0
2017-Feb-08 17:32N 46°06' W 122°57'0 0.0
2017-Feb-08 16:32N 46°06' W 122°57'0 0.0
2017-Feb-08 15:32N 46°06' W 122°57'0 0.0
2017-Feb-08 14:32N 46°06' W 122°57'0 0.0
2017-Feb-08 13:32N 46°06' W 122°57'0 0.0
2017-Feb-08 12:32N 46°06' W 122°57'0 0.0
2017-Feb-08 11:32N 46°06' W 122°57'0 0.0
2017-Feb-08 10:29N 46°06' W 122°57'0 0.0
2017-Feb-08 09:32N 46°06' W 122°57'0 0.0
2017-Feb-08 08:26N 46°06' W 122°57'0 0.0
2017-Feb-08 07:32N 46°06' W 122°57'0 0.0
2017-Feb-08 06:29N 46°06' W 122°57'0 0.0
2017-Feb-08 05:29N 46°06' W 122°57'0 0.0
2017-Feb-08 04:32N 46°06' W 122°57'0 0.0
2017-Feb-08 03:23N 46°06' W 122°57'0 0.0
2017-Feb-08 02:29N 46°06' W 122°57'0 0.0
2017-Feb-08 01:32N 46°06' W 122°57'0 0.0
2017-Feb-08 00:29N 46°06' W 122°57'0 0.0
2017-Feb-07 23:32N 46°06' W 122°57'0 0.0
2017-Feb-07 22:32N 46°06' W 122°57'0 0.0
2017-Feb-07 21:29N 46°06' W 122°57'0 0.0
2017-Feb-07 20:26N 46°06' W 122°57'0 0.0
2017-Feb-07 19:29N 46°06' W 122°57'0 0.0
2017-Feb-07 18:32N 46°06' W 122°57'0 0.0
2017-Feb-07 17:32N 46°06' W 122°57'0 0.0
2017-Feb-07 16:29N 46°06' W 122°57'0 0.0
2017-Feb-07 15:32N 46°06' W 122°57'0 0.0
2017-Feb-07 14:29N 46°06' W 122°57'0 0.0
2017-Feb-07 13:29N 46°06' W 122°57'0 0.0
2017-Feb-07 12:29N 46°06' W 122°57'0 0.0
2017-Feb-07 11:29N 46°06' W 122°57'0 0.0
2017-Feb-07 10:29N 46°06' W 122°57'0 0.0
2017-Feb-07 09:32N 46°06' W 122°57'0 0.0
2017-Feb-07 08:32N 46°06' W 122°57'0 0.0
2017-Feb-07 07:32N 46°06' W 122°57'0 0.0
2017-Feb-07 06:32N 46°06' W 122°57'0 0.0
2017-Feb-07 05:32N 46°06' W 122°57'0 0.0
2017-Feb-07 04:29N 46°06' W 122°57'0 0.0
2017-Feb-07 03:32N 46°06' W 122°57'0 0.0
2017-Feb-07 02:32N 46°06' W 122°57'0 0.0
2017-Feb-07 01:23N 46°06' W 122°57'0 0.0
2017-Feb-07 00:32N 46°06' W 122°57'0 0.0
2017-Feb-06 23:32N 46°06' W 122°57'0 0.0
2017-Feb-06 22:32N 46°06' W 122°57'0 0.0
2017-Feb-06 21:32N 46°06' W 122°57'0 0.0
2017-Feb-06 20:29N 46°06' W 122°57'0 0.0
2017-Feb-06 19:32N 46°06' W 122°57'0 0.0
2017-Feb-06 18:32N 46°06' W 122°57'0 0.0
2017-Feb-06 17:32N 46°06' W 122°57'0 0.0
2017-Feb-06 16:32N 46°06' W 122°57'0 0.0
2017-Feb-06 15:32N 46°06' W 122°57'0 0.0
2017-Feb-06 14:32N 46°06' W 122°57'0 0.0
2017-Feb-06 13:32N 46°06' W 122°57'0 0.0
2017-Feb-06 12:32N 46°06' W 122°57'0 0.0
2017-Feb-06 11:29N 46°06' W 122°57'0 0.0
2017-Feb-06 10:32N 46°06' W 122°57'0 0.0
2017-Feb-06 09:32N 46°06' W 122°57'0 0.0
2017-Feb-06 08:32N 46°06' W 122°57'0 0.0
2017-Feb-06 07:32N 46°06' W 122°57'0 0.0
2017-Feb-06 06:32N 46°06' W 122°57'0 0.0
2017-Feb-06 05:32N 46°06' W 122°57'0 0.0
2017-Feb-06 04:32N 46°06' W 122°57'0 0.0
2017-Feb-06 03:32N 46°06' W 122°57'0 0.0
2017-Feb-06 02:29N 46°06' W 122°57'0 0.0
2017-Feb-06 01:32N 46°06' W 122°57'0 0.0
2017-Feb-06 00:33N 46°06' W 122°57'8 7.6
2017-Feb-05 23:33N 46°10' W 123°06'1010.1
2017-Feb-05 22:34N 46°09' W 123°20'10 9.7
2017-Feb-05 21:33N 46°16' W 123°29'1110.7
2017-Feb-05 20:34N 46°14' W 123°44'8 7.7
2017-Feb-05 19:34N 46°11' W 123°54'7 7.4
2017-Feb-05 18:33N 46°15' W 124°03'1010.1
2017-Feb-05 17:33N 46°12' W 124°17'1212.1
2017-Feb-05 16:33N 46°12' W 124°34'1212.4
2017-Feb-05 15:34N 46°12' W 124°52'1212.2
2017-Feb-05 14:33N 46°12' W 125°10'1212.0
2017-Feb-05 13:33N 46°12' W 125°27'  
Track history (hours):
 
Tides and Currents Weather Stations Pressure Air Temp Water Temp Dewpoint Dewpoint Depression Visibility Wind Speed Wind Dir Waves Ship Positions

Federal Sable

Last reported at 2017-Feb-15 12:31 UTC. Time now 2017-Feb-23 00:16 UTC.
Position N 29°17' W 120°28'.

Length 190 m; draft 9.2 m.

Type: Cargo ship. MMSI: 538004380.

Date/timePositionNaut miles runAvg speedWind from/ knotsBaromVisibWave heightAir tempDewpointWater temp
2017-Feb-15 12:31N 29°17' W 120°28'1513.1
2017-Feb-15 11:23N 29°26' W 120°41'1413.3
2017-Feb-15 10:21N 29°35' W 120°53'1413.2
2017-Feb-15 09:18N 29°43' W 121°06'2212.9
2017-Feb-15 07:34N 29°57' W 121°26'1312.5
2017-Feb-15 06:32N 30°05' W 121°38'1212.7
2017-Feb-15 05:33N 30°13' W 121°49'1513.0
2017-Feb-15 04:23N 30°22' W 122°03'1413.3
2017-Feb-15 03:21N 30°31' W 122°15'1113.4
2017-Feb-15 02:34N 30°39' W 122°24'1413.8
2017-Feb-15 01:34N 30°49' W 122°34'1414.0
2017-Feb-15 00:33N 30°60' W 122°45'1313.5
2017-Feb-14 23:33N 31°10' W 122°56'1813.2
2017-Feb-14 22:13N 31°23' W 123°09'913.2
2017-Feb-14 21:32N 31°30' W 123°16'5313.3
2017-Feb-14 17:33N 32°10' W 123°57'1914.2
2017-Feb-14 16:14N 32°25' W 124°10'1013.6
2017-Feb-14 15:29N 32°34' W 124°17'1313.6
2017-Feb-14 14:33N 32°44' W 124°24'1413.7
2017-Feb-14 13:33N 32°56' W 124°33'1513.8
2017-Feb-14 12:30N 33°08' W 124°42'1313.7
2017-Feb-14 11:34N 33°19' W 124°50'1413.8
2017-Feb-14 10:33N 33°31' W 124°58'1414.0
2017-Feb-14 09:33N 33°43' W 125°07'1413.7
2017-Feb-14 08:33N 33°55' W 125°16'1413.7
2017-Feb-14 07:33N 34°06' W 125°25'4613.4
2017-Feb-14 04:09N 34°45' W 125°54'813.1
2017-Feb-14 03:33N 34°52' W 125°59'3913.1
2017-Feb-14 00:33N 35°25' W 126°24'1312.8
2017-Feb-13 23:33N 35°36' W 126°32'1312.7
2017-Feb-13 22:33N 35°47' W 126°40'1312.8
2017-Feb-13 21:33N 35°58' W 126°49'6813.3
2017-Feb-13 16:25N 36°56' W 127°33'3913.6
2017-Feb-13 13:33N 37°31' W 127°53'1413.6
2017-Feb-13 12:33N 37°44' W 127°59'1414.2
2017-Feb-13 11:33N 37°57' W 128°05'1414.0
2017-Feb-13 10:33N 38°10' W 128°12'1413.7
2017-Feb-13 09:33N 38°23' W 128°18'1313.4
2017-Feb-13 08:33N 38°36' W 128°24'4613.4
2017-Feb-13 05:10N 39°18' W 128°45'813.5
2017-Feb-13 04:33N 39°26' W 128°48'432 9.8
2017-Feb-11 08:33N 46°11' W 125°27'1010.4
2017-Feb-11 07:33N 46°12' W 125°12'1010.2
2017-Feb-11 06:34N 46°12' W 124°57'10 9.9
2017-Feb-11 05:33N 46°12' W 124°43'1010.0
2017-Feb-11 04:34N 46°12' W 124°28'1110.6
2017-Feb-11 03:34N 46°11' W 124°13'9 9.2
2017-Feb-11 02:34N 46°15' W 124°01'1111.5
2017-Feb-11 01:33N 46°13' W 123°45'1313.1
2017-Feb-11 00:34N 46°14' W 123°26'9 9.2
2017-Feb-10 23:33N 46°10' W 123°13'1111.2
2017-Feb-10 22:34N 46°07' W 122°58'1 0.8
2017-Feb-10 21:32N 46°06' W 122°57'0 0.0
2017-Feb-10 20:32N 46°06' W 122°57'0 0.0
2017-Feb-10 19:32N 46°06' W 122°57'0 0.0
2017-Feb-10 18:32N 46°06' W 122°57'0 0.0
2017-Feb-10 17:32N 46°06' W 122°57'0 0.0
2017-Feb-10 16:29N 46°06' W 122°57'0 0.0
2017-Feb-10 15:29N 46°06' W 122°57'0 0.0
2017-Feb-10 14:32N 46°06' W 122°57'0 0.0
2017-Feb-10 13:32N 46°06' W 122°57'0 0.0
2017-Feb-10 12:29N 46°06' W 122°57'0 0.0
2017-Feb-10 11:32N 46°06' W 122°57'0 0.0
2017-Feb-10 10:32N 46°06' W 122°57'0 0.0
2017-Feb-10 09:32N 46°06' W 122°57'0 0.0
2017-Feb-10 08:29N 46°06' W 122°57'0 0.0
2017-Feb-10 07:32N 46°06' W 122°57'0 0.0
2017-Feb-10 06:26N 46°06' W 122°57'0 0.0
2017-Feb-10 05:32N 46°06' W 122°57'0 0.0
2017-Feb-10 04:32N 46°06' W 122°57'0 0.0
2017-Feb-10 03:29N 46°06' W 122°57'0 0.0
2017-Feb-10 02:32N 46°06' W 122°57'0 0.0
2017-Feb-10 01:32N 46°06' W 122°57'0 0.0
2017-Feb-10 00:32N 46°06' W 122°57'0 0.0
2017-Feb-09 23:29N 46°06' W 122°57'0 0.0
2017-Feb-09 22:32N 46°06' W 122°57'0 0.0
2017-Feb-09 21:32N 46°06' W 122°57'0 0.0
2017-Feb-09 20:29N 46°06' W 122°57'0 0.0
2017-Feb-09 19:29N 46°06' W 122°57'0 0.0
2017-Feb-09 18:32N 46°06' W 122°57'0 0.0
2017-Feb-09 17:32N 46°06' W 122°57'0 0.0
2017-Feb-09 16:32N 46°06' W 122°57'0 0.0
2017-Feb-09 15:32N 46°06' W 122°57'0 0.0
2017-Feb-09 14:32N 46°06' W 122°57'0 0.0
2017-Feb-09 13:29N 46°06' W 122°57'0 0.0
2017-Feb-09 12:29N 46°06' W 122°57'0 0.0
2017-Feb-09 11:32N 46°06' W 122°57'0 0.0
2017-Feb-09 10:29N 46°06' W 122°57'0 0.0
2017-Feb-09 09:32N 46°06' W 122°57'0 0.0
2017-Feb-09 08:32N 46°06' W 122°57'0 0.0
2017-Feb-09 07:32N 46°06' W 122°57'0 0.0
2017-Feb-09 06:29N 46°06' W 122°57'0 0.0
2017-Feb-09 05:32N 46°06' W 122°57'0 0.0
2017-Feb-09 04:29N 46°06' W 122°57'0 0.0
2017-Feb-09 03:32N 46°06' W 122°57'0 0.0
2017-Feb-09 02:32N 46°06' W 122°57'0 0.0
2017-Feb-09 01:29N 46°06' W 122°57'0 0.0
2017-Feb-09 00:29N 46°06' W 122°57'0 0.0
2017-Feb-08 23:29N 46°06' W 122°57'0 0.0
2017-Feb-08 22:29N 46°06' W 122°57'0 0.0
2017-Feb-08 21:32N 46°06' W 122°57'0 0.0
2017-Feb-08 20:32N 46°06' W 122°57'0 0.0
2017-Feb-08 19:32N 46°06' W 122°57'0 0.0
2017-Feb-08 18:29N 46°06' W 122°57'0 0.0
2017-Feb-08 17:32N 46°06' W 122°57'0 0.0
2017-Feb-08 16:32N 46°06' W 122°57'0 0.0
2017-Feb-08 15:32N 46°06' W 122°57'0 0.0
2017-Feb-08 14:32N 46°06' W 122°57'0 0.0
2017-Feb-08 13:32N 46°06' W 122°57'0 0.0
2017-Feb-08 12:32N 46°06' W 122°57'0 0.0
2017-Feb-08 11:32N 46°06' W 122°57'0 0.0
2017-Feb-08 10:29N 46°06' W 122°57'0 0.0
2017-Feb-08 09:32N 46°06' W 122°57'0 0.0
2017-Feb-08 08:26N 46°06' W 122°57'0 0.0
2017-Feb-08 07:32N 46°06' W 122°57'0 0.0
2017-Feb-08 06:29N 46°06' W 122°57'0 0.0
2017-Feb-08 05:29N 46°06' W 122°57'0 0.0
2017-Feb-08 04:32N 46°06' W 122°57'0 0.0
2017-Feb-08 03:23N 46°06' W 122°57'0 0.0
2017-Feb-08 02:29N 46°06' W 122°57'0 0.0
2017-Feb-08 01:32N 46°06' W 122°57'0 0.0
2017-Feb-08 00:29N 46°06' W 122°57'0 0.0
2017-Feb-07 23:32N 46°06' W 122°57'0 0.0
2017-Feb-07 22:32N 46°06' W 122°57'0 0.0
2017-Feb-07 21:29N 46°06' W 122°57'0 0.0
2017-Feb-07 20:26N 46°06' W 122°57'0 0.0
2017-Feb-07 19:29N 46°06' W 122°57'0 0.0
2017-Feb-07 18:32N 46°06' W 122°57'0 0.0
2017-Feb-07 17:32N 46°06' W 122°57'0 0.0
2017-Feb-07 16:29N 46°06' W 122°57'0 0.0
2017-Feb-07 15:32N 46°06' W 122°57'0 0.0
2017-Feb-07 14:29N 46°06' W 122°57'0 0.0
2017-Feb-07 13:29N 46°06' W 122°57'0 0.0
2017-Feb-07 12:29N 46°06' W 122°57'0 0.0
2017-Feb-07 11:29N 46°06' W 122°57'0 0.0
2017-Feb-07 10:29N 46°06' W 122°57'0 0.0
2017-Feb-07 09:32N 46°06' W 122°57'0 0.0
2017-Feb-07 08:32N 46°06' W 122°57'0 0.0
2017-Feb-07 07:32N 46°06' W 122°57'0 0.0
2017-Feb-07 06:32N 46°06' W 122°57'0 0.0
2017-Feb-07 05:32N 46°06' W 122°57'0 0.0
2017-Feb-07 04:29N 46°06' W 122°57'0 0.0
2017-Feb-07 03:32N 46°06' W 122°57'0 0.0
2017-Feb-07 02:32N 46°06' W 122°57'0 0.0
2017-Feb-07 01:23N 46°06' W 122°57'0 0.0
2017-Feb-07 00:32N 46°06' W 122°57'0 0.0
2017-Feb-06 23:32N 46°06' W 122°57'0 0.0
2017-Feb-06 22:32N 46°06' W 122°57'0 0.0
2017-Feb-06 21:32N 46°06' W 122°57'0 0.0
2017-Feb-06 20:29N 46°06' W 122°57'0 0.0
2017-Feb-06 19:32N 46°06' W 122°57'0 0.0
2017-Feb-06 18:32N 46°06' W 122°57'0 0.0
2017-Feb-06 17:32N 46°06' W 122°57'0 0.0
2017-Feb-06 16:32N 46°06' W 122°57'0 0.0
2017-Feb-06 15:32N 46°06' W 122°57'0 0.0
2017-Feb-06 14:32N 46°06' W 122°57'0 0.0
2017-Feb-06 13:32N 46°06' W 122°57'0 0.0
2017-Feb-06 12:32N 46°06' W 122°57'0 0.0
2017-Feb-06 11:29N 46°06' W 122°57'0 0.0
2017-Feb-06 10:32N 46°06' W 122°57'0 0.0
2017-Feb-06 09:32N 46°06' W 122°57'0 0.0
2017-Feb-06 08:32N 46°06' W 122°57'0 0.0
2017-Feb-06 07:32N 46°06' W 122°57'0 0.0
2017-Feb-06 06:32N 46°06' W 122°57'0 0.0
2017-Feb-06 05:32N 46°06' W 122°57'0 0.0
2017-Feb-06 04:32N 46°06' W 122°57'0 0.0
2017-Feb-06 03:32N 46°06' W 122°57'0 0.0
2017-Feb-06 02:29N 46°06' W 122°57'0 0.0
2017-Feb-06 01:32N 46°06' W 122°57'0 0.0
2017-Feb-06 00:33N 46°06' W 122°57'8 7.6
2017-Feb-05 23:33N 46°10' W 123°06'1010.1
2017-Feb-05 22:34N 46°09' W 123°20'10 9.7
2017-Feb-05 21:33N 46°16' W 123°29'1110.7
2017-Feb-05 20:34N 46°14' W 123°44'8 7.7
2017-Feb-05 19:34N 46°11' W 123°54'7 7.4
2017-Feb-05 18:33N 46°15' W 124°03'1010.1
2017-Feb-05 17:33N 46°12' W 124°17'1212.1
2017-Feb-05 16:33N 46°12' W 124°34'1212.4
2017-Feb-05 15:34N 46°12' W 124°52'1212.2
2017-Feb-05 14:33N 46°12' W 125°10'1212.0
2017-Feb-05 13:33N 46°12' W 125°27'  

Dump ship's entire track history